createdAt,value
2018-02-07T00:02:27.190Z,24.40
2018-02-07T00:04:54.855Z,22.90
2018-02-07T00:07:22.531Z,17.53
2018-02-07T00:09:50.085Z,32.70
2018-02-07T00:12:17.665Z,29.23
2018-02-07T00:14:45.233Z,11.27
2018-02-07T00:17:12.825Z,27.03
2018-02-07T00:19:40.396Z,34.83
2018-02-07T00:22:07.953Z,21.20
2018-02-07T00:24:35.578Z,32.37
2018-02-07T00:27:03.126Z,32.37
2018-02-07T00:29:30.676Z,32.87
2018-02-07T00:31:58.358Z,24.63
2018-02-07T00:34:25.934Z,36.33
2018-02-07T00:36:53.476Z,28.63
2018-02-07T00:39:21.030Z,21.53
2018-02-07T00:41:48.603Z,29.67
2018-02-07T00:44:16.576Z,36.80
2018-02-07T00:46:44.114Z,31.67
2018-02-07T00:49:11.682Z,27.37
2018-02-07T00:51:39.243Z,38.13
2018-02-07T00:54:06.755Z,33.93
2018-02-07T00:56:34.722Z,38.50
2018-02-07T00:59:02.298Z,42.17
2018-02-07T01:01:29.863Z,38.73
2018-02-07T01:03:57.635Z,36.50
2018-02-07T01:06:25.529Z,22.10
2018-02-07T01:08:53.072Z,43.57
2018-02-07T01:11:20.678Z,29.60
2018-02-07T01:13:48.336Z,29.07
2018-02-07T01:16:15.880Z,40.47
2018-02-07T01:18:43.442Z,20.70
2018-02-07T01:21:10.976Z,29.13
2018-02-07T01:23:38.570Z,39.03
2018-02-07T01:26:06.115Z,29.07
2018-02-07T01:28:33.691Z,33.40
2018-02-07T01:31:01.275Z,33.80
2018-02-07T01:33:28.860Z,38.30
2018-02-07T01:35:56.402Z,32.13
2018-02-07T01:38:23.955Z,41.93
2018-02-07T01:40:51.535Z,39.87
2018-02-07T01:43:19.104Z,44.67
2018-02-07T01:45:46.618Z,22.90
2018-02-07T01:48:14.577Z,33.97
2018-02-07T01:50:42.134Z,33.33
2018-02-07T01:53:09.677Z,41.07
2018-02-07T01:55:37.252Z,36.13
2018-02-07T01:58:04.776Z,20.37
2018-02-07T02:00:32.356Z,21.20
2018-02-07T02:02:59.904Z,43.47
2018-02-07T02:05:27.807Z,36.97
2018-02-07T02:07:55.375Z,37.87
2018-02-07T02:10:22.932Z,37.70
2018-02-07T02:12:54.338Z,30.97
2018-02-07T02:15:21.873Z,55.33
2018-02-07T02:17:49.419Z,45.27
2018-02-07T02:20:17.005Z,49.87
2018-02-07T02:22:44.557Z,42.03
2018-02-07T02:25:12.079Z,53.07
2018-02-07T02:27:39.682Z,51.67
2018-02-07T02:30:07.323Z,46.57
2018-02-07T02:32:34.875Z,45.37
2018-02-07T02:35:02.433Z,42.10
2018-02-07T02:37:29.987Z,56.03
2018-02-07T02:39:57.558Z,48.03
2018-02-07T02:42:25.090Z,67.50
2018-02-07T02:44:52.645Z,39.17
2018-02-07T02:47:20.207Z,46.73
2018-02-07T02:49:47.780Z,39.30
2018-02-07T02:52:15.350Z,58.27
2018-02-07T02:54:42.932Z,50.27
2018-02-07T02:57:10.504Z,45.60
2018-02-07T02:59:38.042Z,38.83
2018-02-07T03:02:05.646Z,47.87
2018-02-07T03:04:33.216Z,42.00
2018-02-07T03:07:00.770Z,55.30
2018-02-07T03:09:28.331Z,50.97
2018-02-07T03:11:55.911Z,58.00
2018-02-07T03:14:23.515Z,48.10
2018-02-07T03:16:51.081Z,48.97
2018-02-07T03:19:18.652Z,41.57
2018-02-07T03:21:46.219Z,52.40
2018-02-07T03:24:13.738Z,45.50
2018-02-07T03:26:41.319Z,59.37
2018-02-07T03:29:08.946Z,40.03
2018-02-07T03:31:36.473Z,45.03
2018-02-07T03:34:04.080Z,61.57
2018-02-07T03:36:31.626Z,52.00
2018-02-07T03:38:59.143Z,59.77
2018-02-07T03:41:26.692Z,53.47
2018-02-07T03:43:54.264Z,59.23
2018-02-07T03:46:21.854Z,44.80
2018-02-07T03:48:49.478Z,57.73
2018-02-07T03:51:17.029Z,65.70
2018-02-07T03:53:44.576Z,66.00
2018-02-07T03:56:12.255Z,52.47
2018-02-07T03:58:39.858Z,52.30
2018-02-07T04:01:07.466Z,62.23
2018-02-07T04:03:35.010Z,48.30
2018-02-07T04:06:02.648Z,49.03
2018-02-07T04:08:30.274Z,38.23
2018-02-07T04:10:57.823Z,35.47
2018-02-07T04:13:25.344Z,40.00
2018-02-07T04:15:52.891Z,64.27
2018-02-07T04:18:20.660Z,54.50
2018-02-07T04:20:48.608Z,36.60
2018-02-07T04:23:16.210Z,51.43
2018-02-07T04:25:43.737Z,45.37
2018-02-07T04:28:11.724Z,59.30
2018-02-07T04:30:39.275Z,43.90
2018-02-07T04:33:06.799Z,41.63
2018-02-07T04:35:34.402Z,54.33
2018-02-07T04:38:01.951Z,59.93
2018-02-07T04:40:29.499Z,33.03
2018-02-07T04:42:57.058Z,60.60
2018-02-07T04:45:24.603Z,59.07
2018-02-07T04:47:52.211Z,38.93
2018-02-07T04:50:19.780Z,49.00
2018-02-07T04:52:47.316Z,59.37
2018-02-07T04:55:14.925Z,48.93
2018-02-07T04:57:42.494Z,61.30
2018-02-07T05:00:10.119Z,56.70
2018-02-07T05:02:37.670Z,62.50
2018-02-07T05:05:05.227Z,50.23
2018-02-07T05:07:32.835Z,37.10
2018-02-07T05:10:00.403Z,38.03
2018-02-07T05:12:27.964Z,48.53
2018-02-07T05:14:55.617Z,54.47
2018-02-07T05:17:23.165Z,41.70
2018-02-07T05:19:51.073Z,52.77
2018-02-07T05:22:18.640Z,46.83
2018-02-07T05:24:46.212Z,35.20
2018-02-07T05:27:13.792Z,18.80
2018-02-07T05:29:41.343Z,27.27
2018-02-07T05:32:08.881Z,38.60
2018-02-07T05:34:36.435Z,38.07
2018-02-07T05:37:03.974Z,38.97
2018-02-07T05:39:31.641Z,16.10
2018-02-07T05:41:59.209Z,57.73
2018-02-07T05:44:26.750Z,53.10
2018-02-07T05:46:55.012Z,41.67
2018-02-07T05:49:22.607Z,41.77
2018-02-07T05:51:50.174Z,54.90
2018-02-07T05:54:19.212Z,46.40
2018-02-07T05:56:46.803Z,53.70
2018-02-07T05:59:14.349Z,51.70
2018-02-07T06:01:41.904Z,56.30
2018-02-07T06:04:09.530Z,59.03
2018-02-07T06:06:37.060Z,40.43
2018-02-07T06:09:04.633Z,46.30
2018-02-07T06:11:32.352Z,52.37
2018-02-07T06:13:59.898Z,42.40
2018-02-07T06:16:27.474Z,15.93
2018-02-07T06:18:55.128Z,50.93
2018-02-07T06:21:22.692Z,66.70
2018-02-07T06:23:50.243Z,45.50
2018-02-07T06:26:17.788Z,51.13
2018-02-07T06:28:45.804Z,20.97
2018-02-07T06:31:13.321Z,61.37
2018-02-07T06:33:40.840Z,24.03
2018-02-07T06:36:08.564Z,39.37
2018-02-07T06:38:36.103Z,47.63
2018-02-07T06:41:03.639Z,33.97
2018-02-07T06:43:31.183Z,32.60
2018-02-07T06:45:58.731Z,51.70
2018-02-07T06:48:26.286Z,33.03
2018-02-07T06:50:53.808Z,48.90
2018-02-07T06:53:21.402Z,37.27
2018-02-07T06:55:48.922Z,28.70
2018-02-07T06:58:16.532Z,45.07
2018-02-07T07:00:44.983Z,33.87
2018-02-07T07:03:12.525Z,29.20
2018-02-07T07:05:40.080Z,39.47
2018-02-07T07:08:07.600Z,36.00
2018-02-07T07:10:35.210Z,37.13
2018-02-07T07:13:02.783Z,55.40
2018-02-07T07:15:30.395Z,29.70
2018-02-07T07:17:57.953Z,35.97
2018-02-07T07:20:25.855Z,26.47
2018-02-07T07:22:53.391Z,31.37
2018-02-07T07:25:20.938Z,39.57
2018-02-07T07:27:48.517Z,35.70
2018-02-07T07:30:16.082Z,32.00
2018-02-07T07:32:44.039Z,36.33
2018-02-07T07:35:11.555Z,49.93
2018-02-07T07:37:39.137Z,30.23
2018-02-07T07:40:06.731Z,34.33
2018-02-07T07:42:34.249Z,26.93
2018-02-07T07:45:01.791Z,23.77
2018-02-07T07:47:29.690Z,69.40
2018-02-07T07:49:57.258Z,26.47
2018-02-07T07:52:24.770Z,31.90
2018-02-07T07:54:52.363Z,32.53
2018-02-07T07:57:19.887Z,30.03
2018-02-07T07:59:47.399Z,34.20
2018-02-07T08:02:14.995Z,21.13
2018-02-07T08:04:42.565Z,33.27
2018-02-07T08:07:10.092Z,36.47
2018-02-07T08:09:37.693Z,35.50
2018-02-07T08:12:05.221Z,54.97
2018-02-07T08:14:32.770Z,40.43
2018-02-07T08:17:00.348Z,40.13
2018-02-07T08:19:27.896Z,43.43
2018-02-07T08:21:55.454Z,32.00
2018-02-07T08:24:23.025Z,38.23
2018-02-07T08:26:50.552Z,33.00
2018-02-07T08:29:18.143Z,48.43
2018-02-07T08:31:45.682Z,47.07
2018-02-07T08:34:13.228Z,19.20
2018-02-07T08:36:40.874Z,38.40
2018-02-07T08:39:08.434Z,40.97
2018-02-07T08:41:35.952Z,29.07
2018-02-07T08:44:03.536Z,28.60
2018-02-07T08:46:31.187Z,21.63
2018-02-07T08:48:58.765Z,35.83
2018-02-07T08:51:26.400Z,24.77
2018-02-07T08:53:53.941Z,21.20
2018-02-07T08:56:21.514Z,36.07
2018-02-07T08:58:49.036Z,49.13
2018-02-07T09:01:16.936Z,58.67
2018-02-07T09:03:44.473Z,46.07
2018-02-07T09:06:12.018Z,43.67
2018-02-07T09:08:39.608Z,31.30
2018-02-07T09:11:07.131Z,36.60
2018-02-07T09:13:34.684Z,32.77
2018-02-07T09:16:02.679Z,46.73
2018-02-07T09:18:30.351Z,23.50
2018-02-07T09:20:57.875Z,55.57
2018-02-07T09:23:25.432Z,27.23
2018-02-07T09:25:52.951Z,30.73
2018-02-07T09:28:20.499Z,51.77
2018-02-07T09:30:48.054Z,22.53
2018-02-07T09:33:15.596Z,28.27
2018-02-07T09:35:43.255Z,27.47
2018-02-07T09:38:10.791Z,30.17
2018-02-07T09:40:38.407Z,39.00
2018-02-07T09:43:05.932Z,24.23
2018-02-07T09:45:33.549Z,21.03
2018-02-07T09:48:01.543Z,31.73
2018-02-07T09:50:29.102Z,33.03
2018-02-07T09:52:56.636Z,39.63
2018-02-07T09:55:24.228Z,41.87
2018-02-07T09:57:51.776Z,18.17
2018-02-07T10:00:19.331Z,21.67
2018-02-07T10:02:47.312Z,36.10
2018-02-07T10:05:14.831Z,33.93
2018-02-07T10:07:42.359Z,18.83
2018-02-07T10:10:09.931Z,25.83
2018-02-07T10:12:37.471Z,36.87
2018-02-07T10:15:05.059Z,21.97
2018-02-07T10:17:32.716Z,27.07
2018-02-07T10:20:00.266Z,32.07
2018-02-07T10:22:27.855Z,19.57
2018-02-07T10:24:55.392Z,32.63
2018-02-07T10:27:23.010Z,23.40
2018-02-07T10:29:50.547Z,27.43
2018-02-07T10:32:18.086Z,30.90
2018-02-07T10:34:45.655Z,33.93
2018-02-07T10:37:13.292Z,36.07
2018-02-07T10:39:40.869Z,25.87
2018-02-07T10:42:08.387Z,33.03
2018-02-07T10:44:35.930Z,37.13
2018-02-07T10:47:03.870Z,26.13
2018-02-07T10:49:31.409Z,26.63
2018-02-07T10:51:58.979Z,28.57
2018-02-07T10:54:26.545Z,31.40
2018-02-07T10:56:54.121Z,28.77
2018-02-07T10:59:21.710Z,32.93
2018-02-07T11:01:49.251Z,28.03
2018-02-07T11:04:16.787Z,29.93
2018-02-07T11:06:44.332Z,38.37
2018-02-07T11:09:11.848Z,31.90
2018-02-07T11:11:39.423Z,32.60
2018-02-07T11:14:06.993Z,32.13
2018-02-07T11:16:34.574Z,30.90
2018-02-07T11:19:02.759Z,32.07
2018-02-07T11:21:30.389Z,38.40
2018-02-07T11:23:57.979Z,19.70
2018-02-07T11:26:25.518Z,25.57
2018-02-07T11:28:53.091Z,45.23
2018-02-07T11:31:20.618Z,34.40
2018-02-07T11:33:48.211Z,24.73
2018-02-07T11:36:15.767Z,24.30
2018-02-07T11:38:43.270Z,23.80
2018-02-07T11:41:10.846Z,35.30
2018-02-07T11:43:38.486Z,34.70
2018-02-07T11:46:06.023Z,24.03
2018-02-07T11:48:33.585Z,16.20
2018-02-07T11:51:01.115Z,27.63
2018-02-07T11:53:28.671Z,31.53
2018-02-07T11:55:56.209Z,29.30
2018-02-07T11:58:23.750Z,20.27
2018-02-07T12:00:51.342Z,31.30
2018-02-07T12:03:18.869Z,26.23
2018-02-07T12:05:46.411Z,35.87
2018-02-07T12:08:13.978Z,26.60
2018-02-07T12:10:41.531Z,26.43
2018-02-07T12:13:09.077Z,16.60
2018-02-07T12:15:36.648Z,30.13
2018-02-07T12:18:04.191Z,26.27
2018-02-07T12:20:31.736Z,18.23
2018-02-07T12:22:59.289Z,14.53
2018-02-07T12:25:26.823Z,20.97
2018-02-07T12:27:54.444Z,14.80
2018-02-07T12:30:21.977Z,13.23
2018-02-07T12:32:49.532Z,14.93
2018-02-07T12:35:17.087Z,25.73
2018-02-07T12:37:44.640Z,16.40
2018-02-07T12:40:12.255Z,14.33
2018-02-07T12:42:39.791Z,20.80
2018-02-07T12:45:07.342Z,24.93
2018-02-07T12:47:35.320Z,25.10
2018-02-07T12:50:02.866Z,17.10
2018-02-07T12:52:30.429Z,17.63
2018-02-07T12:54:58.025Z,12.33
2018-02-07T12:57:25.579Z,10.33
2018-02-07T12:59:53.150Z,15.87
2018-02-07T13:02:20.700Z,14.70
2018-02-07T13:04:48.236Z,13.77
2018-02-07T13:07:15.748Z,17.17
2018-02-07T13:09:43.343Z,14.80
2018-02-07T13:12:10.883Z,18.60
2018-02-07T13:14:38.400Z,15.97
2018-02-07T13:17:05.940Z,10.33
2018-02-07T13:19:33.459Z,7.67
2018-02-07T13:22:01.030Z,16.17
2018-02-07T13:24:28.567Z,17.57
2018-02-07T13:26:56.174Z,22.13
2018-02-07T13:29:23.725Z,21.13
2018-02-07T13:31:51.284Z,23.37
2018-02-07T13:34:18.842Z,17.17
2018-02-07T13:36:46.411Z,17.17
2018-02-07T13:39:13.978Z,16.30
2018-02-07T13:41:41.566Z,14.43
2018-02-07T13:44:09.119Z,9.23
2018-02-07T13:46:36.634Z,19.40
2018-02-07T13:49:04.193Z,15.60
2018-02-07T13:51:31.718Z,11.50
2018-02-07T13:53:59.279Z,13.70
2018-02-07T13:56:26.792Z,13.70
2018-02-07T13:58:54.370Z,18.73
2018-02-07T14:01:21.886Z,10.83
2018-02-07T14:03:49.451Z,9.23
2018-02-07T14:06:17.042Z,18.93
2018-02-07T14:08:44.591Z,18.50
2018-02-07T14:11:12.104Z,25.50
2018-02-07T14:13:39.676Z,12.13
2018-02-07T14:16:07.211Z,20.33
2018-02-07T14:18:34.746Z,11.77
2018-02-07T14:21:02.671Z,25.77
2018-02-07T14:23:30.192Z,21.17
2018-02-07T14:25:57.735Z,16.20
2018-02-07T14:28:25.292Z,17.20
2018-02-07T14:30:52.921Z,14.13
2018-02-07T14:33:20.435Z,17.83
2018-02-07T14:35:47.967Z,13.20
2018-02-07T14:38:15.524Z,16.57
2018-02-07T14:40:43.099Z,20.80
2018-02-07T14:43:10.659Z,17.40
2018-02-07T14:45:38.199Z,17.70
2018-02-07T14:48:05.786Z,15.17
2018-02-07T14:50:33.327Z,18.53
2018-02-07T14:53:00.880Z,9.10
2018-02-07T14:55:28.423Z,22.40
2018-02-07T14:57:55.947Z,13.70
2018-02-07T15:00:23.515Z,14.33
2018-02-07T15:02:51.063Z,23.77
2018-02-07T15:05:18.640Z,20.00
2018-02-07T15:07:46.199Z,11.03
2018-02-07T15:10:13.744Z,17.70
2018-02-07T15:12:41.305Z,18.67
2018-02-07T15:15:08.850Z,18.17
2018-02-07T15:17:36.411Z,19.47
2018-02-07T15:20:03.939Z,19.90
2018-02-07T15:22:31.945Z,12.67
2018-02-07T15:24:59.471Z,19.00
2018-02-07T15:27:27.024Z,14.50
2018-02-07T15:29:54.618Z,17.37
2018-02-07T15:32:22.260Z,28.00
2018-02-07T15:34:49.778Z,17.83
2018-02-07T15:37:17.744Z,27.80
2018-02-07T15:39:45.303Z,19.00
2018-02-07T15:42:12.854Z,20.07
2018-02-07T15:44:40.399Z,19.40
2018-02-07T15:47:07.931Z,17.20
2018-02-07T15:49:35.532Z,23.47
2018-02-07T15:52:03.048Z,18.90
2018-02-07T15:54:30.594Z,21.27
2018-02-07T15:56:58.524Z,23.67
2018-02-07T15:59:26.047Z,17.70
2018-02-07T16:01:53.565Z,21.20
2018-02-07T16:04:21.175Z,21.23
2018-02-07T16:06:48.693Z,21.77
2018-02-07T16:09:16.241Z,25.40
2018-02-07T16:11:43.887Z,29.03
2018-02-07T16:14:11.452Z,27.10
2018-02-07T16:16:39.023Z,25.60
2018-02-07T16:19:06.610Z,28.63
2018-02-07T16:21:34.188Z,19.00
2018-02-07T16:24:01.720Z,29.63
2018-02-07T16:26:29.259Z,19.27
2018-02-07T16:28:56.832Z,30.70
2018-02-07T16:31:24.434Z,29.03
2018-02-07T16:33:51.984Z,30.63
2018-02-07T16:36:19.562Z,21.97
2018-02-07T16:38:47.157Z,25.37
2018-02-07T16:41:14.702Z,25.77
2018-02-07T16:43:42.257Z,32.80
2018-02-07T16:46:10.177Z,27.87
2018-02-07T16:48:37.723Z,26.40
2018-02-07T16:51:05.247Z,46.03
2018-02-07T16:53:32.812Z,48.73
2018-02-07T16:56:00.422Z,25.10
2018-02-07T16:58:28.449Z,22.60
2018-02-07T17:00:55.981Z,26.93
2018-02-07T17:03:23.586Z,27.30
2018-02-07T17:05:51.182Z,30.60
2018-02-07T17:08:18.740Z,36.87
2018-02-07T17:10:46.290Z,30.33
2018-02-07T17:13:13.924Z,18.77
2018-02-07T17:15:41.463Z,22.20
2018-02-07T17:18:09.058Z,21.57
2018-02-07T17:20:37.034Z,24.70
2018-02-07T17:23:04.577Z,29.50
2018-02-07T17:25:32.136Z,21.43
2018-02-07T17:28:00.552Z,38.83
2018-02-07T17:30:28.102Z,30.20
2018-02-07T17:32:55.646Z,24.83
2018-02-07T17:35:23.262Z,36.53
2018-02-07T17:37:50.828Z,25.87
2018-02-07T17:40:18.345Z,32.23
2018-02-07T17:42:45.941Z,37.10
2018-02-07T17:45:13.499Z,34.60
2018-02-07T17:47:41.088Z,35.17
2018-02-07T17:50:08.654Z,34.60
2018-02-07T17:52:36.280Z,32.70
2018-02-07T17:55:03.811Z,28.10
2018-02-07T17:57:31.360Z,27.10
2018-02-07T17:59:58.965Z,30.77
2018-02-07T18:02:26.487Z,28.90
2018-02-07T18:04:54.049Z,29.43
2018-02-07T18:07:21.635Z,31.37
2018-02-07T18:09:49.218Z,28.70
2018-02-07T18:12:16.756Z,28.93
2018-02-07T18:14:44.279Z,74.87
2018-02-07T18:17:11.924Z,52.00
2018-02-07T18:19:39.482Z,53.10
2018-02-07T18:22:07.068Z,48.97
2018-02-07T18:24:34.717Z,49.23
2018-02-07T18:27:02.239Z,43.47
2018-02-07T18:29:29.824Z,42.63
2018-02-07T18:31:57.427Z,28.93
2018-02-07T18:34:24.956Z,34.73
2018-02-07T18:36:52.810Z,38.63
2018-02-07T18:39:20.734Z,34.90
2018-02-07T18:41:48.505Z,35.57
2018-02-07T18:44:16.158Z,28.43
2018-02-07T18:46:43.750Z,23.60
2018-02-07T18:49:11.331Z,45.70
2018-02-07T18:51:38.930Z,38.77
2018-02-07T18:54:06.535Z,37.03
2018-02-07T18:56:34.100Z,27.00
2018-02-07T18:59:01.702Z,29.47
2018-02-07T19:01:29.231Z,35.00
2018-02-07T19:03:57.273Z,46.67
2018-02-07T19:06:24.835Z,35.57
2018-02-07T19:08:52.395Z,28.30
2018-02-07T19:11:20.017Z,30.13
2018-02-07T19:13:47.582Z,31.33
2018-02-07T19:16:15.162Z,32.80
2018-02-07T19:18:43.291Z,32.80
2018-02-07T19:21:10.839Z,28.60
2018-02-07T19:23:38.382Z,25.37
2018-02-07T19:26:05.955Z,27.90
2018-02-07T19:28:33.507Z,26.83
2018-02-07T19:31:01.102Z,29.63
2018-02-07T19:33:28.639Z,31.63
2018-02-07T19:35:56.292Z,25.07
2018-02-07T19:38:24.338Z,27.87
2018-02-07T19:40:52.995Z,31.67
2018-02-07T19:43:20.527Z,30.00
2018-02-07T19:45:48.961Z,35.70
2018-02-07T19:48:16.530Z,34.93
2018-02-07T19:50:44.048Z,28.80
2018-02-07T19:53:11.653Z,38.23
2018-02-07T19:55:40.245Z,38.33
2018-02-07T19:58:08.067Z,33.70
2018-02-07T20:00:35.726Z,30.90
2018-02-07T20:03:03.309Z,31.80
2018-02-07T20:05:31.331Z,34.17
2018-02-07T20:07:58.951Z,38.37
2018-02-07T20:10:26.942Z,38.07
2018-02-07T20:12:54.546Z,39.30
2018-02-07T20:15:22.312Z,35.80
2018-02-07T20:17:51.233Z,34.97
2018-02-07T20:20:18.775Z,29.13
2018-02-07T20:22:46.444Z,37.90
2018-02-07T20:25:14.533Z,36.53
2018-02-07T20:27:42.126Z,34.33
2018-02-07T20:30:09.824Z,37.70
2018-02-07T20:32:37.457Z,30.27
2018-02-07T20:35:05.003Z,31.67
2018-02-07T20:37:33.018Z,41.57
2018-02-07T20:40:00.552Z,38.97
2018-02-07T20:42:28.078Z,30.77
2018-02-07T20:44:55.714Z,36.20
2018-02-07T20:47:23.291Z,30.43
2018-02-07T20:49:50.902Z,36.47
2018-02-07T20:52:18.479Z,92.23
2018-02-07T20:54:46.012Z,78.80
2018-02-07T20:57:13.586Z,51.00
2018-02-07T20:59:41.148Z,46.73
2018-02-07T21:02:08.711Z,41.60
2018-02-07T21:04:36.274Z,53.77
2018-02-07T21:07:03.850Z,45.07
2018-02-07T21:09:31.446Z,48.03
2018-02-07T21:11:59.075Z,35.07
2018-02-07T21:14:26.599Z,45.90
2018-02-07T21:16:54.163Z,36.67
2018-02-07T21:19:21.774Z,34.50
2018-02-07T21:21:49.344Z,30.90
2018-02-07T21:24:16.906Z,34.77
2018-02-07T21:26:44.476Z,32.43
2018-02-07T21:29:12.078Z,42.60
2018-02-07T21:31:39.612Z,42.43
2018-02-07T21:34:07.129Z,44.90
2018-02-07T21:36:34.678Z,36.63
2018-02-07T21:39:02.225Z,38.60
2018-02-07T21:41:29.818Z,34.83
2018-02-07T21:43:57.404Z,32.70
2018-02-07T21:46:24.961Z,47.40
2018-02-07T21:48:52.531Z,48.20
2018-02-07T21:51:20.074Z,36.90
2018-02-07T21:53:47.728Z,37.37
2018-02-07T21:56:15.251Z,39.07
2018-02-07T21:58:42.790Z,35.77
2018-02-07T22:01:10.392Z,42.67
2018-02-07T22:03:37.948Z,33.27
2018-02-07T22:06:05.486Z,31.33
2018-02-07T22:08:33.112Z,33.73
2018-02-07T22:11:00.675Z,49.73
2018-02-07T22:13:28.295Z,39.53
2018-02-07T22:15:55.844Z,34.60
2018-02-07T22:18:23.427Z,49.90
2018-02-07T22:20:50.995Z,47.90
2018-02-07T22:23:18.642Z,53.17
2018-02-07T22:25:46.704Z,46.93
2018-02-07T22:28:14.247Z,46.33
2018-02-07T22:30:41.786Z,45.00
2018-02-07T22:33:09.382Z,47.20
2018-02-07T22:35:36.907Z,49.90
2018-02-07T22:38:04.423Z,54.27
2018-02-07T22:40:31.988Z,61.83
2018-02-07T22:42:59.555Z,58.50
2018-02-07T22:45:27.074Z,50.07
2018-02-07T22:47:54.634Z,43.70
2018-02-07T22:50:22.151Z,51.40
2018-02-07T22:52:49.699Z,57.10
2018-02-07T22:55:17.283Z,56.80
2018-02-07T22:57:44.875Z,56.23
2018-02-07T23:00:12.461Z,48.93
2018-02-07T23:02:39.985Z,51.83
2018-02-07T23:05:07.536Z,42.63
2018-02-07T23:07:35.089Z,50.23
2018-02-07T23:10:02.632Z,52.93
2018-02-07T23:12:30.215Z,48.03
2018-02-07T23:14:58.226Z,56.90
2018-02-07T23:17:25.772Z,56.10
2018-02-07T23:19:53.409Z,77.97
2018-02-07T23:22:20.955Z,61.07
2018-02-07T23:24:48.480Z,77.20
2018-02-07T23:27:16.080Z,61.60
2018-02-07T23:29:43.630Z,61.57
2018-02-07T23:32:11.170Z,51.67
2018-02-07T23:34:38.725Z,62.00
2018-02-07T23:37:06.271Z,58.00
2018-02-07T23:39:33.867Z,54.80
2018-02-07T23:42:01.389Z,42.00
2018-02-07T23:44:28.915Z,44.83
2018-02-07T23:46:56.475Z,44.70
2018-02-07T23:49:24.043Z,54.53
2018-02-07T23:51:51.696Z,64.17
2018-02-07T23:54:19.212Z,61.13
2018-02-07T23:56:46.774Z,53.77
2018-02-07T23:59:14.338Z,62.70
